sensor_id;sensor_type;location;lat;lon;timestamp;pressure;altitude;pressure_sealevel;temperature;humidity
59154;BME280;44935;48.944;9.418;2023-02-28T00:00:51;99422.00;;;-1.04;37.86
59154;BME280;44935;48.944;9.418;2023-02-28T00:03:18;99412.24;;;-0.02;36.55
59154;BME280;44935;48.944;9.418;2023-02-28T00:05:46;99411.87;;;1.39;35.39
59154;BME280;44935;48.944;9.418;2023-02-28T00:08:13;99408.20;;;1.22;35.12
59154;BME280;44935;48.944;9.418;2023-02-28T00:10:40;99407.15;;;-0.11;36.58
59154;BME280;44935;48.944;9.418;2023-02-28T00:13:07;99407.95;;;1.07;36.14
59154;BME280;44935;48.944;9.418;2023-02-28T00:15:34;99407.50;;;0.85;35.97
59154;BME280;44935;48.944;9.418;2023-02-28T00:18:02;99409.22;;;1.36;35.69
59154;BME280;44935;48.944;9.418;2023-02-28T00:20:29;99411.00;;;0.49;37.19
59154;BME280;44935;48.944;9.418;2023-02-28T00:22:56;99406.43;;;0.74;36.58
59154;BME280;44935;48.944;9.418;2023-02-28T00:25:25;99407.25;;;-0.26;37.21
59154;BME280;44935;48.944;9.418;2023-02-28T00:27:53;99410.35;;;0.36;37.00
59154;BME280;44935;48.944;9.418;2023-02-28T00:30:23;99404.93;;;-0.57;37.90
59154;BME280;44935;48.944;9.418;2023-02-28T00:32:51;99404.00;;;0.78;36.61
59154;BME280;44935;48.944;9.418;2023-02-28T00:35:19;99404.80;;;1.47;35.99
59154;BME280;44935;48.944;9.418;2023-02-28T00:37:45;99404.13;;;0.51;36.96
59154;BME280;44935;48.944;9.418;2023-02-28T00:40:14;99404.74;;;0.35;36.95
59154;BME280;44935;48.944;9.418;2023-02-28T00:42:41;99401.33;;;-0.40;38.81
59154;BME280;44935;48.944;9.418;2023-02-28T00:45:10;99403.69;;;0.39;37.70
59154;BME280;44935;48.944;9.418;2023-02-28T00:47:39;99405.23;;;-0.20;39.07
59154;BME280;44935;48.944;9.418;2023-02-28T00:50:07;99410.10;;;0.34;37.64
59154;BME280;44935;48.944;9.418;2023-02-28T00:52:37;99411.30;;;-1.24;40.75
59154;BME280;44935;48.944;9.418;2023-02-28T00:55:05;99410.93;;;-1.19;40.41
59154;BME280;44935;48.944;9.418;2023-02-28T00:57:32;99406.43;;;-0.54;40.08
59154;BME280;44935;48.944;9.418;2023-02-28T00:59:59;99402.31;;;-0.43;39.53
59154;BME280;44935;48.944;9.418;2023-02-28T01:02:26;99404.37;;;0.75;38.01
59154;BME280;44935;48.944;9.418;2023-02-28T01:04:54;99399.10;;;-0.55;38.22
59154;BME280;44935;48.944;9.418;2023-02-28T01:07:21;99400.31;;;-0.62;39.17
59154;BME280;44935;48.944;9.418;2023-02-28T01:09:48;99396.26;;;-0.46;39.88
59154;BME280;44935;48.944;9.418;2023-02-28T01:12:16;99396.67;;;-0.72;39.37
59154;BME280;44935;48.944;9.418;2023-02-28T01:14:43;99395.62;;;0.48;38.36
59154;BME280;44935;48.944;9.418;2023-02-28T01:17:11;99397.14;;;0.60;38.09
59154;BME280;44935;48.944;9.418;2023-02-28T01:19:38;99397.74;;;0.30;38.62
59154;BME280;44935;48.944;9.418;2023-02-28T01:22:06;99394.82;;;0.99;37.87
59154;BME280;44935;48.944;9.418;2023-02-28T01:24:33;99396.49;;;-0.84;39.27
59154;BME280;44935;48.944;9.418;2023-02-28T01:27:01;99397.22;;;0.47;38.56
59154;BME280;44935;48.944;9.418;2023-02-28T01:29:28;99394.71;;;0.62;37.96
59154;BME280;44935;48.944;9.418;2023-02-28T01:31:55;99394.41;;;0.97;37.64
59154;BME280;44935;48.944;9.418;2023-02-28T01:34:22;99393.99;;;0.56;37.71
59154;BME280;44935;48.944;9.418;2023-02-28T01:36:49;99392.72;;;-0.86;40.89
59154;BME280;44935;48.944;9.418;2023-02-28T01:39:16;99387.89;;;0.59;38.92
59154;BME280;44935;48.944;9.418;2023-02-28T01:41:44;99385.86;;;0.68;38.57
59154;BME280;44935;48.944;9.418;2023-02-28T01:45:22;99395.48;;;-1.33;40.14
59154;BME280;44935;48.944;9.418;2023-02-28T01:47:54;99388.35;;;-0.40;40.16
59154;BME280;44935;48.944;9.418;2023-02-28T01:50:24;99389.64;;;-0.48;39.40
59154;BME280;44935;48.944;9.418;2023-02-28T01:52:54;99389.41;;;-0.38;39.75
59154;BME280;44935;48.944;9.418;2023-02-28T01:55:22;99387.76;;;0.71;38.56
59154;BME280;44935;48.944;9.418;2023-02-28T01:57:52;99388.02;;;0.64;38.20
59154;BME280;44935;48.944;9.418;2023-02-28T02:00:24;99389.64;;;0.75;38.61
59154;BME280;44935;48.944;9.418;2023-02-28T02:02:55;99389.57;;;0.39;38.29
59154;BME280;44935;48.944;9.418;2023-02-28T02:05:25;99389.51;;;0.48;39.29
59154;BME280;44935;48.944;9.418;2023-02-28T02:07:55;99379.25;;;-0.70;40.86
59154;BME280;44935;48.944;9.418;2023-02-28T02:10:29;99375.57;;;0.60;38.81
59154;BME280;44935;48.944;9.418;2023-02-28T02:13:25;99374.14;;;0.61;38.92
59154;BME280;44935;48.944;9.418;2023-02-28T02:16:03;99373.30;;;-0.49;39.82
59154;BME280;44935;48.944;9.418;2023-02-28T02:18:34;99370.17;;;0.61;39.12
59154;BME280;44935;48.944;9.418;2023-02-28T02:23:33;99368.26;;;0.00;41.00
59154;BME280;44935;48.944;9.418;2023-02-28T02:26:32;99366.10;;;-0.60;41.47
59154;BME280;44935;48.944;9.418;2023-02-28T02:29:37;99370.24;;;0.62;39.36
59154;BME280;44935;48.944;9.418;2023-02-28T02:32:20;99361.27;;;-0.31;41.29
59154;BME280;44935;48.944;9.418;2023-02-28T02:35:01;99364.93;;;0.40;40.68
59154;BME280;44935;48.944;9.418;2023-02-28T02:37:36;99361.05;;;-0.63;41.19
59154;BME280;44935;48.944;9.418;2023-02-28T02:40:11;99360.74;;;-0.21;41.23
59154;BME280;44935;48.944;9.418;2023-02-28T02:42:47;99359.52;;;-0.09;40.51
59154;BME280;44935;48.944;9.418;2023-02-28T02:45:21;99359.45;;;-0.25;40.60
59154;BME280;44935;48.944;9.418;2023-02-28T02:47:50;99356.95;;;-0.57;40.94
59154;BME280;44935;48.944;9.418;2023-02-28T02:50:23;99356.36;;;-0.80;41.76
59154;BME280;44935;48.944;9.418;2023-02-28T02:52:55;99358.78;;;0.49;40.20
59154;BME280;44935;48.944;9.418;2023-02-28T02:55:24;99360.66;;;0.14;41.23
59154;BME280;44935;48.944;9.418;2023-02-28T02:57:54;99356.27;;;-0.85;41.74
59154;BME280;44935;48.944;9.418;2023-02-28T03:00:26;99355.17;;;-0.16;41.13
59154;BME280;44935;48.944;9.418;2023-02-28T03:02:56;99355.21;;;-0.06;40.62
59154;BME280;44935;48.944;9.418;2023-02-28T03:05:26;99356.55;;;-0.09;40.29
59154;BME280;44935;48.944;9.418;2023-02-28T03:07:54;99350.77;;;-0.88;42.15
59154;BME280;44935;48.944;9.418;2023-02-28T03:10:33;99354.59;;;-0.20;41.25
59154;BME280;44935;48.944;9.418;2023-02-28T03:13:15;99353.67;;;0.38;40.13
59154;BME280;44935;48.944;9.418;2023-02-28T03:15:58;99353.12;;;0.19;40.87
59154;BME280;44935;48.944;9.418;2023-02-28T03:18:35;99349.01;;;-0.37;40.86
59154;BME280;44935;48.944;9.418;2023-02-28T03:21:12;99348.40;;;-0.16;41.54
59154;BME280;44935;48.944;9.418;2023-02-28T03:23:50;99351.24;;;-0.58;41.41
59154;BME280;44935;48.944;9.418;2023-02-28T03:26:22;99346.56;;;-0.51;42.01
59154;BME280;44935;48.944;9.418;2023-02-28T03:28:55;99351.81;;;0.28;41.46
59154;BME280;44935;48.944;9.418;2023-02-28T03:31:30;99353.62;;;0.19;41.82
59154;BME280;44935;48.944;9.418;2023-02-28T03:34:03;99353.38;;;-0.51;41.96
59154;BME280;44935;48.944;9.418;2023-02-28T03:36:36;99359.35;;;0.12;41.11
59154;BME280;44935;48.944;9.418;2023-02-28T03:39:08;99354.62;;;0.23;40.74
59154;BME280;44935;48.944;9.418;2023-02-28T03:41:40;99355.48;;;0.50;40.47
59154;BME280;44935;48.944;9.418;2023-02-28T03:44:12;99356.00;;;-0.58;41.25
59154;BME280;44935;48.944;9.418;2023-02-28T03:46:44;99358.66;;;0.82;39.87
59154;BME280;44935;48.944;9.418;2023-02-28T03:49:16;99358.61;;;0.90;39.84
59154;BME280;44935;48.944;9.418;2023-02-28T03:51:46;99358.36;;;-0.68;41.99
59154;BME280;44935;48.944;9.418;2023-02-28T03:54:18;99365.99;;;-0.82;43.11
59154;BME280;44935;48.944;9.418;2023-02-28T03:56:50;99360.92;;;0.67;41.12
59154;BME280;44935;48.944;9.418;2023-02-28T03:59:21;99360.48;;;-0.73;42.54
59154;BME280;44935;48.944;9.418;2023-02-28T04:01:51;99361.40;;;0.06;41.92
59154;BME280;44935;48.944;9.418;2023-02-28T04:04:18;99364.94;;;0.30;40.18
59154;BME280;44935;48.944;9.418;2023-02-28T04:06:45;99364.39;;;1.00;40.15
59154;BME280;44935;48.944;9.418;2023-02-28T04:09:14;99366.70;;;-0.20;41.12
59154;BME280;44935;48.944;9.418;2023-02-28T04:11:43;99360.79;;;-0.75;42.53
59154;BME280;44935;48.944;9.418;2023-02-28T04:14:11;99364.10;;;0.02;42.20
59154;BME280;44935;48.944;9.418;2023-02-28T04:16:40;99367.75;;;-0.22;41.08
59154;BME280;44935;48.944;9.418;2023-02-28T04:19:10;99375.90;;;-3.30;46.71
59154;BME280;44935;48.944;9.418;2023-02-28T04:21:41;99373.59;;;-1.16;43.39
59154;BME280;44935;48.944;9.418;2023-02-28T04:24:11;99376.41;;;-1.79;44.98
59154;BME280;44935;48.944;9.418;2023-02-28T04:26:38;99368.53;;;-0.52;42.84
59154;BME280;44935;48.944;9.418;2023-02-28T04:29:06;99377.07;;;0.14;42.08
59154;BME280;44935;48.944;9.418;2023-02-28T04:31:33;99372.05;;;-0.43;42.28
59154;BME280;44935;48.944;9.418;2023-02-28T04:34:01;99372.69;;;-0.38;42.35
59154;BME280;44935;48.944;9.418;2023-02-28T04:36:29;99376.10;;;-0.43;41.29
59154;BME280;44935;48.944;9.418;2023-02-28T04:38:56;99378.31;;;-1.15;42.37
59154;BME280;44935;48.944;9.418;2023-02-28T04:41:23;99370.07;;;-0.40;42.39
59154;BME280;44935;48.944;9.418;2023-02-28T04:43:51;99370.06;;;-0.68;41.88
59154;BME280;44935;48.944;9.418;2023-02-28T04:46:19;99367.14;;;-0.57;41.67
59154;BME280;44935;48.944;9.418;2023-02-28T04:48:46;99365.94;;;0.13;41.13
59154;BME280;44935;48.944;9.418;2023-02-28T04:51:14;99369.64;;;0.03;40.85
59154;BME280;44935;48.944;9.418;2023-02-28T04:53:42;99367.36;;;-0.73;42.78
59154;BME280;44935;48.944;9.418;2023-02-28T04:56:12;99369.73;;;0.38;41.11
59154;BME280;44935;48.944;9.418;2023-02-28T04:58:40;99370.58;;;1.22;40.00
59154;BME280;44935;48.944;9.418;2023-02-28T05:01:19;99370.76;;;0.73;40.02
59154;BME280;44935;48.944;9.418;2023-02-28T05:03:47;99368.13;;;1.39;39.34
59154;BME280;44935;48.944;9.418;2023-02-28T05:06:16;99374.61;;;1.43;39.07
59154;BME280;44935;48.944;9.418;2023-02-28T05:08:43;99372.73;;;0.90;40.06
59154;BME280;44935;48.944;9.418;2023-02-28T05:11:16;99365.86;;;1.18;39.73
59154;BME280;44935;48.944;9.418;2023-02-28T05:13:44;99375.19;;;-1.17;42.75
59154;BME280;44935;48.944;9.418;2023-02-28T05:16:11;99364.75;;;-0.61;42.30
59154;BME280;44935;48.944;9.418;2023-02-28T05:18:38;99376.34;;;-2.07;44.44
59154;BME280;44935;48.944;9.418;2023-02-28T05:21:06;99381.12;;;-1.74;44.52
59154;BME280;44935;48.944;9.418;2023-02-28T05:23:47;99374.89;;;-3.10;46.11
59154;BME280;44935;48.944;9.418;2023-02-28T05:26:14;99376.33;;;-2.65;46.87
59154;BME280;44935;48.944;9.418;2023-02-28T05:28:41;99376.88;;;-0.56;43.60
59154;BME280;44935;48.944;9.418;2023-02-28T05:31:08;99374.27;;;-0.33;42.86
59154;BME280;44935;48.944;9.418;2023-02-28T05:33:37;99370.97;;;-0.52;42.91
59154;BME280;44935;48.944;9.418;2023-02-28T05:36:04;99377.10;;;0.30;41.21
59154;BME280;44935;48.944;9.418;2023-02-28T05:38:31;99376.65;;;-0.16;41.59
59154;BME280;44935;48.944;9.418;2023-02-28T05:40:59;99375.74;;;-0.08;41.36
59154;BME280;44935;48.944;9.418;2023-02-28T05:43:26;99377.31;;;-3.14;46.66
59154;BME280;44935;48.944;9.418;2023-02-28T05:45:53;99379.90;;;-1.35;43.58
59154;BME280;44935;48.944;9.418;2023-02-28T05:48:21;99374.31;;;-0.15;42.09
59154;BME280;44935;48.944;9.418;2023-02-28T05:50:48;99373.96;;;-0.58;41.88
59154;BME280;44935;48.944;9.418;2023-02-28T05:53:15;99378.03;;;-0.44;41.96
59154;BME280;44935;48.944;9.418;2023-02-28T05:55:42;99376.04;;;-0.97;41.66
59154;BME280;44935;48.944;9.418;2023-02-28T05:58:09;99375.01;;;-0.77;41.91
59154;BME280;44935;48.944;9.418;2023-02-28T06:00:36;99373.89;;;-0.35;42.19
59154;BME280;44935;48.944;9.418;2023-02-28T06:03:03;99377.21;;;-0.73;42.24
59154;BME280;44935;48.944;9.418;2023-02-28T06:05:30;99380.15;;;-0.19;41.81
59154;BME280;44935;48.944;9.418;2023-02-28T06:07:57;99385.47;;;-1.01;41.95
59154;BME280;44935;48.944;9.418;2023-02-28T06:10:24;99382.03;;;-0.24;42.42
59154;BME280;44935;48.944;9.418;2023-02-28T06:12:50;99388.56;;;-0.41;41.51
59154;BME280;44935;48.944;9.418;2023-02-28T06:15:18;99391.81;;;-0.72;41.94
59154;BME280;44935;48.944;9.418;2023-02-28T06:17:45;99397.15;;;-0.51;41.81
59154;BME280;44935;48.944;9.418;2023-02-28T06:20:12;99407.55;;;-1.66;43.19
59154;BME280;44935;48.944;9.418;2023-02-28T06:22:40;99403.69;;;-0.89;42.01
59154;BME280;44935;48.944;9.418;2023-02-28T06:25:09;99408.44;;;-1.77;44.16
59154;BME280;44935;48.944;9.418;2023-02-28T06:27:37;99412.76;;;-1.53;44.51
59154;BME280;44935;48.944;9.418;2023-02-28T06:30:04;99411.42;;;-0.27;43.19
59154;BME280;44935;48.944;9.418;2023-02-28T06:32:32;99410.10;;;-0.19;41.43
59154;BME280;44935;48.944;9.418;2023-02-28T06:34:59;99410.64;;;-0.54;42.01
59154;BME280;44935;48.944;9.418;2023-02-28T06:37:26;99412.22;;;1.41;39.55
59154;BME280;44935;48.944;9.418;2023-02-28T06:39:54;99413.58;;;0.73;40.25
59154;BME280;44935;48.944;9.418;2023-02-28T06:42:21;99413.55;;;-0.03;40.42
59154;BME280;44935;48.944;9.418;2023-02-28T06:44:49;99418.65;;;1.01;39.75
59154;BME280;44935;48.944;9.418;2023-02-28T06:47:16;99420.34;;;0.79;39.88
59154;BME280;44935;48.944;9.418;2023-02-28T06:49:44;99423.33;;;0.19;40.29
59154;BME280;44935;48.944;9.418;2023-02-28T06:52:10;99429.52;;;-0.46;41.82
59154;BME280;44935;48.944;9.418;2023-02-28T06:54:37;99438.33;;;-1.29;42.90
59154;BME280;44935;48.944;9.418;2023-02-28T06:57:05;99434.50;;;-1.49;42.95
59154;BME280;44935;48.944;9.418;2023-02-28T06:59:33;99438.89;;;-0.90;42.43
59154;BME280;44935;48.944;9.418;2023-02-28T07:02:00;99438.44;;;0.36;40.35
59154;BME280;44935;48.944;9.418;2023-02-28T07:04:27;99435.42;;;-0.11;41.45
59154;BME280;44935;48.944;9.418;2023-02-28T07:06:55;99440.74;;;-0.57;42.06
59154;BME280;44935;48.944;9.418;2023-02-28T07:09:22;99440.75;;;0.19;40.83
59154;BME280;44935;48.944;9.418;2023-02-28T07:11:50;99444.25;;;0.23;40.70
59154;BME280;44935;48.944;9.418;2023-02-28T07:14:17;99446.00;;;0.10;41.15
59154;BME280;44935;48.944;9.418;2023-02-28T07:16:43;99444.03;;;0.15;40.82
59154;BME280;44935;48.944;9.418;2023-02-28T07:19:10;99444.71;;;-0.78;42.77
59154;BME280;44935;48.944;9.418;2023-02-28T07:21:37;99449.66;;;-1.07;43.44
59154;BME280;44935;48.944;9.418;2023-02-28T07:24:05;99446.82;;;0.65;40.23
59154;BME280;44935;48.944;9.418;2023-02-28T07:26:32;99448.59;;;-1.45;44.01
59154;BME280;44935;48.944;9.418;2023-02-28T07:28:59;99451.37;;;-1.47;43.43
59154;BME280;44935;48.944;9.418;2023-02-28T07:31:27;99448.68;;;-1.62;44.23
59154;BME280;44935;48.944;9.418;2023-02-28T07:33:55;99453.41;;;-1.04;43.12
59154;BME280;44935;48.944;9.418;2023-02-28T07:36:22;99456.15;;;-0.59;42.38
59154;BME280;44935;48.944;9.418;2023-02-28T07:38:49;99452.60;;;-0.43;42.09
59154;BME280;44935;48.944;9.418;2023-02-28T07:41:16;99456.65;;;-0.56;41.70
59154;BME280;44935;48.944;9.418;2023-02-28T07:43:44;99455.38;;;-0.34;41.49
59154;BME280;44935;48.944;9.418;2023-02-28T07:46:13;99458.67;;;0.54;40.65
59154;BME280;44935;48.944;9.418;2023-02-28T07:48:41;99457.58;;;0.34;40.54
59154;BME280;44935;48.944;9.418;2023-02-28T07:51:09;99463.83;;;1.50;39.03
59154;BME280;44935;48.944;9.418;2023-02-28T07:53:35;99462.12;;;-0.69;41.44
59154;BME280;44935;48.944;9.418;2023-02-28T07:56:04;99460.29;;;-0.55;41.30
59154;BME280;44935;48.944;9.418;2023-02-28T07:58:31;99462.11;;;0.32;40.83
59154;BME280;44935;48.944;9.418;2023-02-28T08:01:05;99462.09;;;-0.61;41.59
59154;BME280;44935;48.944;9.418;2023-02-28T08:03:33;99474.67;;;-1.77;43.80
59154;BME280;44935;48.944;9.418;2023-02-28T08:06:01;99467.88;;;-2.32;45.07
59154;BME280;44935;48.944;9.418;2023-02-28T08:08:28;99472.34;;;-1.04;44.62
59154;BME280;44935;48.944;9.418;2023-02-28T08:10:55;99466.89;;;-2.35;45.36
59154;BME280;44935;48.944;9.418;2023-02-28T08:13:21;99466.09;;;-0.01;42.42
59154;BME280;44935;48.944;9.418;2023-02-28T08:15:48;99466.12;;;-2.09;45.24
59154;BME280;44935;48.944;9.418;2023-02-28T08:18:15;99463.42;;;-2.11;45.74
59154;BME280;44935;48.944;9.418;2023-02-28T08:20:42;99464.80;;;-3.09;47.98
59154;BME280;44935;48.944;9.418;2023-02-28T08:23:09;99467.04;;;-1.80;45.35
59154;BME280;44935;48.944;9.418;2023-02-28T08:25:36;99463.60;;;-1.52;45.26
59154;BME280;44935;48.944;9.418;2023-02-28T08:28:04;99464.35;;;-0.85;44.53
59154;BME280;44935;48.944;9.418;2023-02-28T08:30:31;99457.88;;;-2.20;45.83
59154;BME280;44935;48.944;9.418;2023-02-28T08:32:59;99461.56;;;-1.78;45.06
59154;BME280;44935;48.944;9.418;2023-02-28T08:35:26;99456.92;;;-1.80;45.10
59154;BME280;44935;48.944;9.418;2023-02-28T08:37:53;99456.15;;;-1.75;44.96
59154;BME280;44935;48.944;9.418;2023-02-28T08:40:20;99461.23;;;-0.42;43.62
59154;BME280;44935;48.944;9.418;2023-02-28T08:42:47;99462.69;;;0.14;41.34
59154;BME280;44935;48.944;9.418;2023-02-28T08:45:15;99464.45;;;0.90;39.98
59154;BME280;44935;48.944;9.418;2023-02-28T08:47:41;99477.15;;;-0.72;43.04
59154;BME280;44935;48.944;9.418;2023-02-28T08:50:09;99474.79;;;-1.47;43.83
59154;BME280;44935;48.944;9.418;2023-02-28T08:52:36;99471.49;;;-1.60;44.78
59154;BME280;44935;48.944;9.418;2023-02-28T08:55:04;99472.79;;;-0.48;42.48
59154;BME280;44935;48.944;9.418;2023-02-28T08:57:31;99473.04;;;-1.45;44.22
59154;BME280;44935;48.944;9.418;2023-02-28T08:59:59;99462.52;;;-1.75;45.40
59154;BME280;44935;48.944;9.418;2023-02-28T09:02:26;99460.88;;;0.20;42.71
59154;BME280;44935;48.944;9.418;2023-02-28T09:04:54;99467.05;;;-1.54;44.00
59154;BME280;44935;48.944;9.418;2023-02-28T09:07:21;99466.72;;;-1.42;45.26
59154;BME280;44935;48.944;9.418;2023-02-28T09:09:48;99462.99;;;0.23;42.04
59154;BME280;44935;48.944;9.418;2023-02-28T09:12:16;99463.16;;;-0.75;42.92
59154;BME280;44935;48.944;9.418;2023-02-28T09:14:43;99458.31;;;1.24;40.19
59154;BME280;44935;48.944;9.418;2023-02-28T09:17:10;99461.55;;;-0.36;42.15
59154;BME280;44935;48.944;9.418;2023-02-28T09:19:37;99463.73;;;-1.68;44.68
59154;BME280;44935;48.944;9.418;2023-02-28T09:22:04;99460.13;;;-0.50;42.72
59154;BME280;44935;48.944;9.418;2023-02-28T09:24:31;99465.93;;;-0.26;42.23
59154;BME280;44935;48.944;9.418;2023-02-28T09:26:58;99465.10;;;-0.45;42.93
59154;BME280;44935;48.944;9.418;2023-02-28T09:29:25;99463.94;;;1.46;40.56
59154;BME280;44935;48.944;9.418;2023-02-28T09:31:53;99465.91;;;-0.96;42.43
59154;BME280;44935;48.944;9.418;2023-02-28T09:34:20;99470.21;;;-1.12;43.39
59154;BME280;44935;48.944;9.418;2023-02-28T09:36:47;99464.12;;;-0.34;42.30
59154;BME280;44935;48.944;9.418;2023-02-28T09:39:15;99463.30;;;0.01;40.86
59154;BME280;44935;48.944;9.418;2023-02-28T09:41:44;99458.97;;;0.44;40.35
59154;BME280;44935;48.944;9.418;2023-02-28T09:44:16;99459.16;;;1.05;39.39
59154;BME280;44935;48.944;9.418;2023-02-28T09:46:49;99461.01;;;1.69;37.83
59154;BME280;44935;48.944;9.418;2023-02-28T09:49:19;99464.32;;;2.27;37.83
59154;BME280;44935;48.944;9.418;2023-02-28T09:51:51;99464.32;;;2.10;37.49
59154;BME280;44935;48.944;9.418;2023-02-28T09:54:24;99469.75;;;-0.71;40.79
59154;BME280;44935;48.944;9.418;2023-02-28T09:56:55;99470.23;;;-0.24;40.27
59154;BME280;44935;48.944;9.418;2023-02-28T09:59:33;99467.19;;;1.79;38.59
59154;BME280;44935;48.944;9.418;2023-02-28T10:02:16;99465.78;;;1.69;39.24
59154;BME280;44935;48.944;9.418;2023-02-28T10:04:48;99469.29;;;1.57;38.73
59154;BME280;44935;48.944;9.418;2023-02-28T10:07:26;99473.27;;;-0.35;40.23
59154;BME280;44935;48.944;9.418;2023-02-28T10:09:59;99476.22;;;0.65;39.54
59154;BME280;44935;48.944;9.418;2023-02-28T10:12:30;99467.85;;;-0.05;39.55
59154;BME280;44935;48.944;9.418;2023-02-28T10:14:59;99470.33;;;1.95;37.47
59154;BME280;44935;48.944;9.418;2023-02-28T10:17:29;99470.87;;;2.93;36.03
59154;BME280;44935;48.944;9.418;2023-02-28T10:20:09;99475.99;;;3.13;34.75
59154;BME280;44935;48.944;9.418;2023-02-28T10:22:43;99473.58;;;2.83;36.83
59154;BME280;44935;48.944;9.418;2023-02-28T10:25:19;99475.38;;;2.34;37.40
59154;BME280;44935;48.944;9.418;2023-02-28T10:27:48;99476.03;;;2.39;35.52
59154;BME280;44935;48.944;9.418;2023-02-28T10:30:16;99479.83;;;1.81;36.76
59154;BME280;44935;48.944;9.418;2023-02-28T10:32:50;99481.64;;;3.43;35.09
59154;BME280;44935;48.944;9.418;2023-02-28T10:35:20;99480.31;;;3.12;35.91
59154;BME280;44935;48.944;9.418;2023-02-28T10:37:49;99475.17;;;2.01;36.55
59154;BME280;44935;48.944;9.418;2023-02-28T10:40:34;99478.18;;;1.93;36.24
59154;BME280;44935;48.944;9.418;2023-02-28T10:43:04;99478.24;;;1.14;37.94
59154;BME280;44935;48.944;9.418;2023-02-28T10:45:32;99478.60;;;1.55;37.21
59154;BME280;44935;48.944;9.418;2023-02-28T10:48:03;99476.74;;;2.30;36.03
59154;BME280;44935;48.944;9.418;2023-02-28T10:50:37;99483.94;;;3.02;34.93
59154;BME280;44935;48.944;9.418;2023-02-28T10:53:24;99476.11;;;2.57;36.15
59154;BME280;44935;48.944;9.418;2023-02-28T10:55:58;99476.63;;;3.55;34.71
59154;BME280;44935;48.944;9.418;2023-02-28T10:58:29;99472.67;;;2.68;34.78
59154;BME280;44935;48.944;9.418;2023-02-28T11:00:57;99474.32;;;2.77;34.85
59154;BME280;44935;48.944;9.418;2023-02-28T11:03:31;99472.34;;;2.18;35.89
59154;BME280;44935;48.944;9.418;2023-02-28T11:06:04;99471.32;;;1.05;37.21
59154;BME280;44935;48.944;9.418;2023-02-28T11:08:34;99462.53;;;2.27;36.53
59154;BME280;44935;48.944;9.418;2023-02-28T11:11:06;99460.89;;;2.63;35.64
59154;BME280;44935;48.944;9.418;2023-02-28T11:13:34;99453.56;;;4.14;34.04
59154;BME280;44935;48.944;9.418;2023-02-28T11:16:04;99461.06;;;3.84;34.05
59154;BME280;44935;48.944;9.418;2023-02-28T11:18:38;99454.11;;;2.75;35.48
59154;BME280;44935;48.944;9.418;2023-02-28T11:21:07;99450.53;;;3.66;34.00
59154;BME280;44935;48.944;9.418;2023-02-28T11:23:39;99451.21;;;3.17;33.96
59154;BME280;44935;48.944;9.418;2023-02-28T11:26:08;99448.56;;;3.65;34.38
59154;BME280;44935;48.944;9.418;2023-02-28T11:28:37;99443.79;;;4.85;32.92
59154;BME280;44935;48.944;9.418;2023-02-28T11:31:15;99447.91;;;3.10;33.90
59154;BME280;44935;48.944;9.418;2023-02-28T11:33:46;99443.71;;;2.69;34.41
59154;BME280;44935;48.944;9.418;2023-02-28T11:36:18;99449.43;;;3.72;34.11
59154;BME280;44935;48.944;9.418;2023-02-28T11:38:47;99442.82;;;2.50;34.93
59154;BME280;44935;48.944;9.418;2023-02-28T11:41:33;99446.36;;;3.13;34.74
59154;BME280;44935;48.944;9.418;2023-02-28T11:44:15;99443.00;;;3.35;34.26
59154;BME280;44935;48.944;9.418;2023-02-28T11:46:50;99438.19;;;2.15;36.76
59154;BME280;44935;48.944;9.418;2023-02-28T11:49:30;99446.59;;;2.94;34.74
59154;BME280;44935;48.944;9.418;2023-02-28T11:52:01;99438.81;;;4.55;33.56
59154;BME280;44935;48.944;9.418;2023-02-28T11:54:41;99443.84;;;4.09;34.02
59154;BME280;44935;48.944;9.418;2023-02-28T11:57:27;99436.62;;;3.53;34.07
59154;BME280;44935;48.944;9.418;2023-02-28T12:00:03;99425.80;;;3.23;33.88
59154;BME280;44935;48.944;9.418;2023-02-28T12:02:44;99439.41;;;3.11;33.56
59154;BME280;44935;48.944;9.418;2023-02-28T12:05:24;99435.16;;;4.77;32.70
59154;BME280;44935;48.944;9.418;2023-02-28T12:08:03;99439.58;;;2.45;33.92
59154;BME280;44935;48.944;9.418;2023-02-28T12:10:38;99443.19;;;2.71;33.73
59154;BME280;44935;48.944;9.418;2023-02-28T12:13:18;99441.93;;;1.79;35.43
59154;BME280;44935;48.944;9.418;2023-02-28T12:15:59;99440.05;;;2.84;35.06
59154;BME280;44935;48.944;9.418;2023-02-28T12:18:45;99426.52;;;4.96;32.40
59154;BME280;44935;48.944;9.418;2023-02-28T12:21:22;99428.85;;;4.25;32.68
59154;BME280;44935;48.944;9.418;2023-02-28T12:24:06;99436.44;;;3.18;33.34
59154;BME280;44935;48.944;9.418;2023-02-28T12:26:39;99433.50;;;2.00;35.43
59154;BME280;44935;48.944;9.418;2023-02-28T12:29:14;99433.19;;;2.45;34.05
59154;BME280;44935;48.944;9.418;2023-02-28T12:31:49;99425.55;;;2.23;35.44
59154;BME280;44935;48.944;9.418;2023-02-28T12:34:20;99422.34;;;3.70;33.35
59154;BME280;44935;48.944;9.418;2023-02-28T12:36:51;99427.81;;;3.15;33.58
59154;BME280;44935;48.944;9.418;2023-02-28T12:39:25;99424.22;;;2.48;34.27
59154;BME280;44935;48.944;9.418;2023-02-28T12:41:56;99420.53;;;2.12;35.44
59154;BME280;44935;48.944;9.418;2023-02-28T12:44:30;99416.51;;;1.83;36.59
59154;BME280;44935;48.944;9.418;2023-02-28T12:47:02;99411.52;;;1.90;35.80
59154;BME280;44935;48.944;9.418;2023-02-28T12:49:33;99409.63;;;2.48;35.58
59154;BME280;44935;48.944;9.418;2023-02-28T12:52:02;99406.40;;;3.16;34.90
59154;BME280;44935;48.944;9.418;2023-02-28T12:54:36;99396.71;;;4.59;33.26
59154;BME280;44935;48.944;9.418;2023-02-28T12:57:11;99398.73;;;5.54;31.78
59154;BME280;44935;48.944;9.418;2023-02-28T12:59:44;99406.11;;;3.09;33.84
59154;BME280;44935;48.944;9.418;2023-02-28T13:03:32;99397.70;;;3.81;33.91
59154;BME280;44935;48.944;9.418;2023-02-28T13:06:16;99404.01;;;3.37;33.71
59154;BME280;44935;48.944;9.418;2023-02-28T13:08:59;99399.44;;;2.33;34.64
59154;BME280;44935;48.944;9.418;2023-02-28T13:11:30;99392.14;;;4.01;33.66
59154;BME280;44935;48.944;9.418;2023-02-28T13:14:00;99395.01;;;4.15;32.07
59154;BME280;44935;48.944;9.418;2023-02-28T13:16:27;99394.60;;;3.16;33.96
59154;BME280;44935;48.944;9.418;2023-02-28T13:19:09;99398.05;;;3.19;33.65
59154;BME280;44935;48.944;9.418;2023-02-28T13:21:43;99392.64;;;3.57;33.26
59154;BME280;44935;48.944;9.418;2023-02-28T13:24:38;99390.27;;;4.82;33.06
59154;BME280;44935;48.944;9.418;2023-02-28T13:27:31;99391.80;;;4.60;32.17